Terminal Aerodrome Forecast
Issued by NWS

Home | Current Version | Previous Version | Text Only | Print | Product List | Glossary On
Versions: 1 2 3 4 5 6 7 8 9 10 11 12 13 14 15 16 17 18
663
FTUS44 KBMX 180520
TAFANB
TAF
KANB 180520Z 1806/1906 23003KT 3SM BR BKN035 BKN150
      TEMPO 1806/1809 00000KT 1SM BR BKN015 BKN150
     FM180900 24002KT 2SM BR OVC007
     FM181500 35004KT P6SM BKN015=

USA.gov is the U.S. government's official web portal to all federal, state and local government web resources and services.